Time;durP1;ratioP1;P1;durP2;ratioP2;P2;SDS_P1;SDS_P2;PMS_P1;PMS_P2;Temp;Humidity;BMP_temperature;BMP_pressure;BME280_temperature;BME280_humidity;BME280_pressure;Samples;Min_cycle;Max_cycle;Signal;HPM_P1;HPM_P2
2023/08/23 00:00:16;;;;;;;3.33;2.17;;;17.10;99.90;;;;;;4983586;28;20984;-75
2023/08/23 00:02:42;;;;;;;3.17;2.30;;;17.10;99.90;;;;;;4998853;28;20652;-77
2023/08/23 00:05:09;;;;;;;3.13;2.33;;;17.10;99.90;;;;;;4993938;28;20019;-75
2023/08/23 00:07:35;;;;;;;3.78;2.17;;;17.00;99.90;;;;;;4974127;28;20026;-77
2023/08/23 00:10:02;;;;;;;2.92;2.13;;;17.00;99.90;;;;;;4974515;28;20361;-74
2023/08/23 00:12:28;;;;;;;4.68;2.90;;;17.00;99.90;;;;;;4973144;28;20026;-77
2023/08/23 00:14:55;;;;;;;6.15;3.05;;;17.00;99.90;;;;;;4970622;28;20667;-78
2023/08/23 00:17:21;;;;;;;5.07;2.75;;;17.10;99.90;;;;;;4971678;28;20046;-78
2023/08/23 00:19:47;;;;;;;3.58;2.35;;;17.00;99.90;;;;;;4994992;28;20065;-77
2023/08/23 00:22:14;;;;;;;4.43;2.33;;;17.00;99.90;;;;;;4981129;28;20369;-77
2023/08/23 00:24:40;;;;;;;3.67;1.70;;;16.90;99.90;;;;;;4980988;28;20041;-78
2023/08/23 00:27:07;;;;;;;4.97;2.13;;;16.90;99.90;;;;;;4989184;28;20029;-77
2023/08/23 00:29:35;;;;;;;6.47;2.42;;;16.90;99.90;;;;;;4988595;28;20037;-74
2023/08/23 00:32:02;;;;;;;3.40;2.42;;;16.80;99.90;;;;;;4977003;28;20030;-73
2023/08/23 00:34:28;;;;;;;3.45;2.83;;;16.80;99.90;;;;;;4955471;28;20045;-79
2023/08/23 00:36:54;;;;;;;4.55;2.38;;;16.80;99.90;;;;;;4972117;28;20034;-77
2023/08/23 00:39:21;;;;;;;3.88;2.05;;;16.80;99.90;;;;;;4977153;28;20041;-80
2023/08/23 00:41:48;;;;;;;3.25;2.00;;;16.80;99.90;;;;;;4983429;28;20045;-78
2023/08/23 00:44:14;;;;;;;3.10;1.65;;;16.80;99.90;;;;;;4980457;28;20034;-78
2023/08/23 00:46:41;;;;;;;2.97;1.52;;;16.70;99.90;;;;;;4975576;28;20121;-77
2023/08/23 00:49:08;;;;;;;3.65;1.67;;;16.70;99.90;;;;;;4973870;28;20520;-79
2023/08/23 00:51:35;;;;;;;3.35;2.40;;;16.70;99.90;;;;;;4972561;28;20037;-75
2023/08/23 00:54:02;;;;;;;3.55;2.03;;;16.60;99.90;;;;;;4970524;28;20073;-78
2023/08/23 00:56:30;;;;;;;3.53;2.17;;;16.60;99.90;;;;;;4972847;28;20045;-76
2023/08/23 00:58:58;;;;;;;2.50;1.90;;;16.60;99.90;;;;;;4994196;28;20517;-75
2023/08/23 01:01:25;;;;;;;3.35;2.22;;;16.60;99.90;;;;;;4975933;28;20038;-79
2023/08/23 01:03:55;;;;;;;3.50;2.30;;;16.60;99.90;;;;;;4998204;28;20025;-79
2023/08/23 01:06:24;;;;;;;5.47;2.63;;;16.70;99.90;;;;;;4977399;28;20042;-79
2023/08/23 01:09:14;;;;;;;4.50;3.10;;;16.70;99.90;;;;;;4994883;28;20025;-74
2023/08/23 01:11:52;;;;;;;4.97;2.85;;;16.70;99.90;;;;;;4954809;28;20386;-78
2023/08/23 01:14:24;;;;;;;3.63;2.78;;;16.60;99.90;;;;;;4968630;28;20039;-79
2023/08/23 01:16:51;;;;;;;5.60;4.47;;;16.70;99.90;;;;;;4972817;28;20464;-79
2023/08/23 01:19:44;;;;;;;4.38;3.42;;;16.60;99.90;;;;;;4989607;28;20110;-75
2023/08/23 01:22:21;;;;;;;6.03;3.35;;;16.70;99.90;;;;;;4991481;28;20549;-74
2023/08/23 01:24:48;;;;;;;4.78;4.03;;;16.60;99.90;;;;;;4980336;28;20364;-75
2023/08/23 01:27:18;;;;;;;5.95;3.72;;;16.60;99.90;;;;;;4981357;28;20037;-79
2023/08/23 01:29:45;;;;;;;4.53;3.75;;;16.60;99.90;;;;;;4992921;28;20481;-79
2023/08/23 01:32:35;;;;;;;3.92;3.53;;;16.60;99.90;;;;;;4988431;28;20057;-79
2023/08/23 01:35:53;;;;;;;6.68;5.03;;;16.70;99.90;;;;;;4988328;28;20179;-76
2023/08/23 01:38:22;;;;;;;9.73;4.72;;;16.60;99.90;;;;;;4944848;28;20034;-78
2023/08/23 01:40:49;;;;;;;8.00;5.75;;;16.60;99.90;;;;;;4956496;28;20041;-78
2023/08/23 01:43:15;;;;;;;8.65;5.75;;;16.70;99.90;;;;;;4955409;28;20101;-78
2023/08/23 01:45:42;;;;;;;6.90;5.00;;;16.60;99.90;;;;;;4947103;28;20057;-80
2023/08/23 01:48:08;;;;;;;6.28;4.28;;;16.60;99.90;;;;;;4965749;28;20500;-79
2023/08/23 01:50:35;;;;;;;4.53;3.80;;;16.60;99.90;;;;;;4949006;28;20042;-77
2023/08/23 01:53:03;;;;;;;7.80;4.18;;;16.60;99.90;;;;;;4954095;28;20042;-79
2023/08/23 01:55:30;;;;;;;4.47;3.78;;;16.50;99.90;;;;;;4954429;28;20050;-78
2023/08/23 01:57:57;;;;;;;6.03;4.47;;;16.50;99.90;;;;;;4942382;28;20039;-76
2023/08/23 02:00:24;;;;;;;4.00;3.60;;;16.50;99.90;;;;;;4954356;28;20667;-74
2023/08/23 02:02:53;;;;;;;5.32;3.40;;;16.50;99.90;;;;;;4943482;28;20054;-78
2023/08/23 02:05:19;;;;;;;5.25;2.80;;;16.50;99.90;;;;;;4924807;28;20053;-79
2023/08/23 02:07:46;;;;;;;4.60;3.60;;;16.40;99.90;;;;;;4935053;28;20283;-79
2023/08/23 02:10:13;;;;;;;6.25;3.60;;;16.40;99.90;;;;;;4978381;28;20065;-79
2023/08/23 02:12:40;;;;;;;6.47;4.80;;;16.40;99.90;;;;;;4981186;28;20057;-74
2023/08/23 02:15:07;;;;;;;9.13;4.72;;;16.30;99.90;;;;;;4955864;28;20036;-77
2023/08/23 02:17:33;;;;;;;5.88;4.60;;;16.30;99.90;;;;;;4972349;28;20044;-79
2023/08/23 02:20:00;;;;;;;9.23;4.68;;;16.30;99.90;;;;;;4974871;28;20022;-76
2023/08/23 02:22:26;;;;;;;6.20;3.78;;;16.30;99.90;;;;;;4987252;28;20492;-78
2023/08/23 02:24:52;;;;;;;4.40;3.78;;;16.30;99.90;;;;;;4973465;28;20041;-77
2023/08/23 02:27:19;;;;;;;5.68;4.25;;;16.30;99.90;;;;;;4975123;28;20033;-76
2023/08/23 02:29:45;;;;;;;4.32;3.03;;;16.20;99.90;;;;;;4980807;28;20488;-77
2023/08/23 02:32:11;;;;;;;4.97;3.85;;;16.20;99.90;;;;;;4980552;28;20041;-75
2023/08/23 02:34:38;;;;;;;5.13;4.05;;;16.20;99.90;;;;;;4972804;28;20045;-74
2023/08/23 02:37:05;;;;;;;4.32;2.70;;;16.20;99.90;;;;;;4974292;28;20353;-79
2023/08/23 02:39:31;;;;;;;5.95;3.58;;;16.10;99.90;;;;;;4956314;28;21030;-77
2023/08/23 02:41:57;;;;;;;6.18;4.45;;;16.10;99.90;;;;;;4974908;28;20045;-79
2023/08/23 02:44:24;;;;;;;6.40;4.82;;;16.10;99.90;;;;;;4952319;28;20029;-77
2023/08/23 02:46:50;;;;;;;6.55;4.35;;;16.00;99.90;;;;;;4973433;28;20049;-78
2023/08/23 02:49:16;;;;;;;6.22;4.22;;;16.10;99.90;;;;;;4972939;28;20112;-75
2023/08/23 02:51:43;;;;;;;6.22;3.75;;;16.00;99.90;;;;;;4979884;28;20045;-78
2023/08/23 02:54:10;;;;;;;4.90;3.42;;;16.00;99.90;;;;;;4995909;28;20486;-76
2023/08/23 02:56:36;;;;;;;3.70;3.25;;;15.90;99.90;;;;;;4970167;28;20044;-74
2023/08/23 02:59:05;;;;;;;3.22;2.40;;;15.90;99.90;;;;;;4973044;28;20045;-78
2023/08/23 03:01:31;;;;;;;4.85;2.38;;;15.90;99.90;;;;;;4973437;28;20073;-74
2023/08/23 03:03:58;;;;;;;2.67;1.50;;;15.90;99.90;;;;;;4964177;28;20042;-76
2023/08/23 03:06:24;;;;;;;4.28;2.63;;;15.80;99.90;;;;;;4984301;28;20046;-78
2023/08/23 03:08:50;;;;;;;3.40;2.17;;;15.80;99.90;;;;;;4985764;28;20034;-78
2023/08/23 03:11:17;;;;;;;4.97;3.35;;;15.80;99.90;;;;;;4978941;28;20053;-77
2023/08/23 03:13:43;;;;;;;3.95;2.83;;;15.80;99.90;;;;;;4961100;28;20569;-76
2023/08/23 03:16:11;;;;;;;4.45;2.33;;;15.90;99.90;;;;;;4974567;28;20026;-75
2023/08/23 03:18:37;;;;;;;3.67;2.80;;;15.90;99.90;;;;;;4967397;28;20045;-79
2023/08/23 03:21:05;;;;;;;3.78;2.40;;;16.00;99.90;;;;;;4965088;28;20038;-76
2023/08/23 03:23:31;;;;;;;4.63;3.20;;;16.00;99.90;;;;;;4951471;28;20560;-79
2023/08/23 03:25:58;;;;;;;4.60;2.58;;;16.00;99.90;;;;;;4966823;28;20304;-78
2023/08/23 03:28:24;;;;;;;3.85;2.40;;;16.00;99.90;;;;;;4983861;28;20030;-75
2023/08/23 03:30:51;;;;;;;4.03;2.55;;;16.10;99.90;;;;;;4972929;28;20052;-76
2023/08/23 03:33:17;;;;;;;5.25;2.90;;;16.10;99.90;;;;;;4975551;28;20473;-77
2023/08/23 03:35:52;;;;;;;4.50;2.95;;;16.00;99.90;;;;;;4993975;28;20030;-79
2023/08/23 03:38:19;;;;;;;3.00;2.50;;;16.00;99.90;;;;;;4971291;28;20034;-74
2023/08/23 03:40:48;;;;;;;2.50;1.88;;;15.90;99.90;;;;;;4965469;28;20117;-76
2023/08/23 03:43:15;;;;;;;3.22;1.45;;;15.90;99.90;;;;;;4967109;28;20042;-74
2023/08/23 03:45:49;;;;;;;2.08;1.63;;;15.80;99.90;;;;;;4966044;28;20046;-75
2023/08/23 03:48:16;;;;;;;2.53;1.35;;;15.80;99.90;;;;;;4952660;28;20034;-77
2023/08/23 03:50:43;;;;;;;2.30;1.58;;;15.80;99.90;;;;;;4967871;28;20346;-76
2023/08/23 03:53:09;;;;;;;2.30;1.42;;;15.70;99.90;;;;;;4957221;28;20046;-77
2023/08/23 03:55:37;;;;;;;2.25;1.52;;;15.70;99.90;;;;;;4993879;28;20053;-77
2023/08/23 03:58:05;;;;;;;4.20;1.73;;;15.70;99.90;;;;;;4961901;28;20034;-76
2023/08/23 04:00:32;;;;;;;2.38;1.20;;;15.70;99.90;;;;;;4988641;28;20621;-77
2023/08/23 04:03:01;;;;;;;2.83;1.45;;;15.70;99.90;;;;;;4986000;28;20041;-78
2023/08/23 04:05:27;;;;;;;2.67;1.60;;;15.70;99.90;;;;;;4935791;28;20506;-78
2023/08/23 04:07:54;;;;;;;2.47;1.38;;;15.70;99.90;;;;;;4971385;28;20041;-80
2023/08/23 04:10:20;;;;;;;2.65;1.30;;;15.70;99.90;;;;;;4986034;28;20030;-74
2023/08/23 04:12:46;;;;;;;1.75;1.10;;;15.60;99.90;;;;;;4954028;28;20041;-76
2023/08/23 04:15:13;;;;;;;2.60;1.80;;;15.60;99.90;;;;;;4979946;28;20029;-75
2023/08/23 04:17:39;;;;;;;2.40;1.70;;;15.60;99.90;;;;;;4995950;28;20523;-78
2023/08/23 04:20:06;;;;;;;3.13;1.50;;;15.60;99.90;;;;;;4979707;28;20034;-78
2023/08/23 04:22:33;;;;;;;2.67;1.30;;;15.60;99.90;;;;;;4986882;28;20040;-77
2023/08/23 04:25:00;;;;;;;4.18;2.05;;;15.60;99.90;;;;;;4987802;28;20018;-77
2023/08/23 04:27:26;;;;;;;3.22;1.63;;;15.60;99.90;;;;;;4972182;28;20038;-75
2023/08/23 04:29:53;;;;;;;2.50;1.05;;;15.60;99.90;;;;;;4970686;28;20037;-75
2023/08/23 04:32:20;;;;;;;1.85;1.27;;;15.60;99.90;;;;;;4953667;28;20068;-77
2023/08/23 04:34:46;;;;;;;3.13;1.70;;;15.60;99.90;;;;;;4942816;28;21959;-78
2023/08/23 04:37:12;;;;;;;3.22;1.70;;;15.60;99.90;;;;;;4979323;28;20367;-76
2023/08/23 04:39:39;;;;;;;2.78;1.90;;;15.60;99.90;;;;;;4967782;28;20534;-77
2023/08/23 04:42:06;;;;;;;3.70;2.10;;;15.60;99.90;;;;;;4978149;28;20385;-77
2023/08/23 04:44:32;;;;;;;5.13;2.55;;;15.60;99.90;;;;;;4951616;28;20033;-77
2023/08/23 04:46:59;;;;;;;4.13;2.35;;;15.60;99.90;;;;;;4974794;28;20045;-74
2023/08/23 04:49:28;;;;;;;4.78;2.55;;;15.70;99.90;;;;;;4959922;28;20623;-74
2023/08/23 04:51:54;;;;;;;2.90;2.13;;;15.70;99.90;;;;;;4959456;28;20044;-79
2023/08/23 04:54:20;;;;;;;3.65;2.05;;;15.70;99.90;;;;;;4975613;28;20046;-79
2023/08/23 04:56:47;;;;;;;3.45;2.60;;;15.70;99.90;;;;;;4994468;28;20019;-77
2023/08/23 04:59:14;;;;;;;4.93;3.17;;;15.70;99.90;;;;;;4968788;28;20045;-74
2023/08/23 05:01:41;;;;;;;3.15;2.60;;;15.80;99.90;;;;;;4982255;28;20827;-79
2023/08/23 05:04:08;;;;;;;4.15;3.20;;;15.70;99.90;;;;;;4954158;28;20025;-79
2023/08/23 05:06:36;;;;;;;4.22;3.00;;;15.80;99.90;;;;;;4974078;28;20037;-75
2023/08/23 05:09:05;;;;;;;4.03;3.00;;;15.90;99.90;;;;;;4969670;28;20397;-80
2023/08/23 05:11:32;;;;;;;3.70;2.90;;;15.90;99.90;;;;;;4974395;28;20041;-75
2023/08/23 05:13:58;;;;;;;4.82;2.78;;;16.00;99.90;;;;;;4973133;28;20030;-78
2023/08/23 05:16:25;;;;;;;6.03;2.83;;;16.10;99.90;;;;;;4972488;28;20026;-77
2023/08/23 05:18:51;;;;;;;5.40;2.70;;;16.10;99.90;;;;;;4965872;28;20041;-78
2023/08/23 05:21:18;;;;;;;4.10;3.03;;;16.20;99.90;;;;;;4999634;28;20029;-77
2023/08/23 05:23:45;;;;;;;4.05;2.88;;;16.20;99.90;;;;;;4982580;28;20030;-76
2023/08/23 05:26:11;;;;;;;4.97;3.50;;;16.20;99.90;;;;;;4975216;28;20409;-77
2023/08/23 05:28:38;;;;;;;3.25;2.60;;;16.30;99.90;;;;;;4973905;28;20380;-79
2023/08/23 05:31:04;;;;;;;4.13;3.38;;;16.30;99.90;;;;;;4989386;28;20069;-85
2023/08/23 05:33:32;;;;;;;4.10;3.55;;;16.30;99.90;;;;;;4955397;28;20042;-82
2023/08/23 05:35:59;;;;;;;4.90;3.30;;;16.30;99.90;;;;;;4974015;28;20037;-81
2023/08/23 05:38:25;;;;;;;5.32;4.40;;;16.30;99.90;;;;;;4965479;28;20468;-76
2023/08/23 05:40:54;;;;;;;5.00;4.35;;;16.40;99.90;;;;;;4984968;28;20034;-86
2023/08/23 05:43:22;;;;;;;5.35;4.53;;;16.40;99.90;;;;;;4982389;28;20389;-81
2023/08/23 05:45:54;;;;;;;4.47;4.07;;;16.40;99.90;;;;;;4955539;28;20021;-76
2023/08/23 05:48:21;;;;;;;5.35;4.82;;;16.50;99.90;;;;;;4975340;28;20972;-75
2023/08/23 05:50:48;;;;;;;4.25;3.53;;;16.60;99.90;;;;;;4979522;28;20029;-75
2023/08/23 05:53:20;;;;;;;4.32;3.72;;;16.60;99.90;;;;;;4972962;28;20426;-79
2023/08/23 05:55:50;;;;;;;4.05;3.13;;;16.70;99.90;;;;;;4985579;28;20049;-76
2023/08/23 05:58:18;;;;;;;5.50;3.55;;;16.80;99.90;;;;;;4958037;28;20037;-77
2023/08/23 06:00:46;;;;;;;4.70;4.15;;;17.00;99.90;;;;;;4960230;28;22563;-79
2023/08/23 06:03:15;;;;;;;5.68;4.75;;;17.20;99.90;;;;;;4982340;28;20042;-78
2023/08/23 06:05:43;;;;;;;5.63;5.03;;;17.40;99.90;;;;;;4979001;28;20038;-80
2023/08/23 06:08:10;;;;;;;5.30;4.38;;;17.50;99.90;;;;;;4975221;28;20032;-79
2023/08/23 06:10:37;;;;;;;4.68;3.75;;;17.80;99.90;;;;;;4989081;28;20021;-77
2023/08/23 06:13:04;;;;;;;4.90;4.43;;;18.00;99.90;;;;;;4972178;28;20058;-80
2023/08/23 06:15:30;;;;;;;5.72;3.95;;;18.20;99.90;;;;;;4971110;28;20242;-78
2023/08/23 06:17:57;;;;;;;4.28;3.40;;;18.40;99.90;;;;;;4975035;28;20537;-79
2023/08/23 06:20:23;;;;;;;4.32;3.63;;;18.50;99.90;;;;;;4990044;28;20045;-79
2023/08/23 06:22:50;;;;;;;5.70;5.03;;;18.70;99.90;;;;;;4978741;28;20045;-79
2023/08/23 06:25:16;;;;;;;6.80;5.07;;;18.80;99.90;;;;;;4981822;28;20389;-80
2023/08/23 06:27:44;;;;;;;5.18;4.32;;;19.00;99.90;;;;;;4981499;28;20034;-79
2023/08/23 06:30:11;;;;;;;6.50;5.50;;;19.10;99.90;;;;;;4956377;28;20727;-73
2023/08/23 06:32:37;;;;;;;4.97;3.97;;;19.30;99.90;;;;;;4958144;28;20034;-80
2023/08/23 06:35:04;;;;;;;4.65;3.38;;;19.40;99.90;;;;;;4971840;28;22599;-81
2023/08/23 06:37:31;;;;;;;8.02;4.75;;;19.60;99.90;;;;;;4958921;28;20037;-79
2023/08/23 06:39:57;;;;;;;5.30;3.58;;;19.70;99.90;;;;;;4975158;28;20432;-81
2023/08/23 06:42:24;;;;;;;4.10;3.70;;;19.80;99.90;;;;;;4942894;28;20029;-79
2023/08/23 06:44:50;;;;;;;5.63;4.40;;;20.00;99.90;;;;;;4963757;28;20041;-76
2023/08/23 06:47:16;;;;;;;5.22;4.65;;;20.20;99.90;;;;;;4978733;28;20053;-73
2023/08/23 06:49:43;;;;;;;6.55;5.20;;;20.30;99.90;;;;;;4990427;28;20606;-79
2023/08/23 06:52:10;;;;;;;6.97;5.95;;;20.50;99.90;;;;;;4967450;28;20483;-75
2023/08/23 06:54:36;;;;;;;4.80;3.90;;;20.80;99.90;;;;;;4957845;28;20046;-74
2023/08/23 06:57:03;;;;;;;5.25;4.75;;;21.10;99.90;;;;;;4967315;28;20077;-75
2023/08/23 06:59:29;;;;;;;6.85;4.70;;;21.40;99.90;;;;;;4973534;28;20056;-76
2023/08/23 07:01:55;;;;;;;5.35;4.43;;;21.70;99.90;;;;;;4972636;28;20629;-77
2023/08/23 07:04:22;;;;;;;4.68;3.92;;;21.80;99.90;;;;;;4976720;28;20496;-76
2023/08/23 07:06:48;;;;;;;4.05;3.15;;;21.90;99.90;;;;;;4979970;28;20030;-77
2023/08/23 07:09:15;;;;;;;4.10;3.67;;;22.00;99.90;;;;;;4980393;28;20030;-78
2023/08/23 07:11:41;;;;;;;4.78;3.25;;;22.00;99.90;;;;;;4973838;28;20034;-77
2023/08/23 07:14:08;;;;;;;2.50;1.80;;;22.10;99.90;;;;;;4962582;28;20042;-73
2023/08/23 07:16:35;;;;;;;6.07;4.50;;;22.20;99.90;;;;;;4972539;28;20042;-77
2023/08/23 07:19:06;;;;;;;4.55;3.20;;;22.30;99.90;;;;;;4987860;28;20038;-73
2023/08/23 07:21:32;;;;;;;6.85;3.88;;;22.40;99.90;;;;;;4966952;28;20030;-77
2023/08/23 07:23:58;;;;;;;3.47;2.70;;;22.40;99.90;;;;;;4971026;28;20049;-75
2023/08/23 07:26:26;;;;;;;3.03;2.13;;;22.50;99.90;;;;;;4980324;28;20861;-76
2023/08/23 07:28:52;;;;;;;3.20;2.47;;;22.50;99.90;;;;;;4981538;28;20033;-76
2023/08/23 07:31:18;;;;;;;4.32;3.15;;;22.50;99.90;;;;;;4994559;28;20034;-73
2023/08/23 07:33:45;;;;;;;4.10;2.38;;;22.50;99.90;;;;;;4971349;28;20058;-74
2023/08/23 07:36:11;;;;;;;3.78;1.73;;;22.60;99.90;;;;;;4973772;28;20469;-77
2023/08/23 07:38:39;;;;;;;4.78;3.25;;;22.70;99.90;;;;;;4969425;28;20045;-74
2023/08/23 07:41:05;;;;;;;5.40;2.90;;;22.70;99.90;;;;;;4958557;28;20038;-78
2023/08/23 07:43:32;;;;;;;3.17;2.05;;;22.70;99.90;;;;;;4960014;28;20034;-74
2023/08/23 07:46:00;;;;;;;2.35;1.77;;;22.80;99.90;;;;;;4992684;28;20045;-77
2023/08/23 07:48:27;;;;;;;2.58;1.20;;;22.90;99.90;;;;;;4984190;28;20118;-76
2023/08/23 07:51:01;;;;;;;2.80;1.27;;;23.00;99.90;;;;;;4984562;28;20045;-76
2023/08/23 07:53:29;;;;;;;3.13;1.63;;;23.10;99.90;;;;;;4976336;28;20049;-78
2023/08/23 07:55:55;;;;;;;1.95;1.10;;;23.10;99.90;;;;;;4988863;28;20038;-75
2023/08/23 07:58:22;;;;;;;2.33;1.25;;;23.20;99.90;;;;;;4974340;28;20041;-78
2023/08/23 08:00:51;;;;;;;3.42;2.13;;;23.30;99.90;;;;;;4974893;28;20038;-73
2023/08/23 08:03:18;;;;;;;1.70;1.00;;;23.30;99.90;;;;;;4976278;28;20045;-77
2023/08/23 08:05:44;;;;;;;2.88;1.27;;;23.40;99.90;;;;;;4956958;28;20094;-76
2023/08/23 08:08:10;;;;;;;3.85;1.80;;;23.50;99.90;;;;;;4978375;28;20381;-77
2023/08/23 08:10:37;;;;;;;2.88;1.50;;;23.70;99.90;;;;;;4986083;28;20034;-76
2023/08/23 08:13:04;;;;;;;2.58;1.23;;;23.90;99.90;;;;;;4997896;28;20076;-74
2023/08/23 08:15:31;;;;;;;3.20;1.27;;;23.90;99.90;;;;;;4994336;28;20441;-76
2023/08/23 08:17:58;;;;;;;3.50;1.08;;;24.10;99.90;;;;;;4974310;28;20057;-77
2023/08/23 08:20:24;;;;;;;3.15;1.13;;;24.20;99.90;;;;;;4989078;28;20049;-74
2023/08/23 08:22:51;;;;;;;2.13;1.33;;;24.20;99.90;;;;;;4990305;28;20041;-77
2023/08/23 08:25:18;;;;;;;1.75;0.90;;;24.20;99.90;;;;;;4992242;28;20515;-75
2023/08/23 08:27:44;;;;;;;4.18;1.05;;;24.30;99.90;;;;;;4975858;28;20709;-79
2023/08/23 08:30:11;;;;;;;1.67;1.00;;;24.30;99.90;;;;;;4981390;28;20045;-74
2023/08/23 08:32:37;;;;;;;2.58;1.60;;;24.40;99.90;;;;;;4982578;28;20040;-77
2023/08/23 08:35:04;;;;;;;3.38;1.40;;;24.50;99.90;;;;;;4978295;28;20042;-78
2023/08/23 08:37:30;;;;;;;3.17;1.42;;;24.60;99.90;;;;;;4945239;28;20293;-77
2023/08/23 08:39:57;;;;;;;3.45;1.33;;;24.70;99.90;;;;;;4990931;28;20037;-74
2023/08/23 08:42:24;;;;;;;2.85;1.15;;;24.70;99.90;;;;;;4988407;28;20034;-76
2023/08/23 08:44:52;;;;;;;4.88;1.58;;;24.80;99.90;;;;;;4969165;28;20042;-77
2023/08/23 08:47:18;;;;;;;3.53;1.40;;;24.80;99.90;;;;;;4971889;28;20049;-76
2023/08/23 08:49:44;;;;;;;3.78;1.33;;;24.90;99.90;;;;;;4971948;28;20037;-77
2023/08/23 08:52:13;;;;;;;1.73;1.00;;;25.00;99.90;;;;;;4981844;28;20034;-76
2023/08/23 08:54:43;;;;;;;2.08;1.17;;;25.00;99.90;;;;;;4998215;28;20191;-76
2023/08/23 08:57:11;;;;;;;2.95;1.73;;;25.20;99.90;;;;;;4979814;28;20033;-76
2023/08/23 08:59:41;;;;;;;3.08;1.38;;;25.30;99.90;;;;;;4975958;28;20492;-76
2023/08/23 09:02:10;;;;;;;2.58;1.50;;;25.30;99.90;;;;;;4974685;28;20034;-78
2023/08/23 09:04:38;;;;;;;4.18;1.50;;;25.30;99.90;;;;;;4988690;28;20030;-77
2023/08/23 09:07:05;;;;;;;2.60;0.70;;;25.40;99.90;;;;;;4974259;28;20037;-74
2023/08/23 09:09:32;;;;;;;1.83;1.10;;;25.50;99.90;;;;;;4952409;28;20049;-78
2023/08/23 09:11:59;;;;;;;3.08;1.42;;;25.50;99.90;;;;;;4977464;28;20045;-78
2023/08/23 09:14:28;;;;;;;2.30;0.82;;;25.70;99.90;;;;;;4983901;28;20068;-75
2023/08/23 09:16:54;;;;;;;2.90;1.13;;;25.80;99.90;;;;;;4981272;28;20061;-76
2023/08/23 09:19:21;;;;;;;2.38;1.00;;;25.90;99.90;;;;;;4977693;28;21276;-74
2023/08/23 09:21:51;;;;;;;1.80;0.80;;;25.90;99.90;;;;;;4976526;28;20403;-77
2023/08/23 09:24:18;;;;;;;3.63;0.98;;;26.00;99.90;;;;;;4972631;28;20030;-78
2023/08/23 09:26:45;;;;;;;1.35;0.70;;;26.20;99.90;;;;;;4971570;28;22819;-76
2023/08/23 09:29:12;;;;;;;2.25;0.93;;;26.30;99.90;;;;;;4990077;28;20041;-77
2023/08/23 09:31:41;;;;;;;3.28;2.17;;;26.40;99.90;;;;;;4973840;28;20034;-73
2023/08/23 09:34:13;;;;;;;1.88;0.80;;;26.50;99.90;;;;;;4970599;28;20159;-77
2023/08/23 09:36:42;;;;;;;;;;;26.60;99.90;;;;;;4981815;28;20041;-74
2023/08/23 09:39:12;;;;;;;4.72;2.95;;;26.60;99.90;;;;;;4982295;28;20273;-77
2023/08/23 09:41:43;;;;;;;3.85;2.60;;;26.70;99.90;;;;;;4976336;28;20041;-74
2023/08/23 09:44:09;;;;;;;4.70;1.40;;;26.80;99.90;;;;;;4970169;28;20025;-73
2023/08/23 09:46:39;;;;;;;2.22;0.80;;;26.90;99.90;;;;;;4970762;28;20037;-77
2023/08/23 09:49:07;;;;;;;1.88;0.80;;;27.00;99.90;;;;;;4973859;28;20038;-77
2023/08/23 09:51:37;;;;;;;0.93;0.40;;;27.10;99.90;;;;;;4970100;28;20779;-76
2023/08/23 09:54:21;;;;;;;1.30;0.60;;;27.30;99.90;;;;;;4957344;28;20064;-76
2023/08/23 09:56:49;;;;;;;1.45;0.60;;;27.40;99.90;;;;;;4981758;28;20030;-75
2023/08/23 09:59:16;;;;;;;1.85;0.70;;;27.50;99.60;;;;;;4996453;28;20026;-78
2023/08/23 10:01:43;;;;;;;1.90;0.90;;;27.60;99.50;;;;;;4974709;28;20041;-76
2023/08/23 10:04:09;;;;;;;1.00;0.50;;;27.60;99.00;;;;;;4973350;28;20034;-74
2023/08/23 10:06:36;;;;;;;1.50;0.60;;;27.70;99.00;;;;;;4971468;28;20033;-76
2023/08/23 10:09:03;;;;;;;1.30;0.68;;;27.80;98.70;;;;;;4972526;28;20064;-73
2023/08/23 10:11:31;;;;;;;1.83;0.60;;;27.90;98.40;;;;;;4974540;28;20795;-76
2023/08/23 10:13:59;;;;;;;1.65;0.60;;;28.00;98.00;;;;;;4968637;28;20041;-76
2023/08/23 10:16:27;;;;;;;2.65;0.70;;;28.00;97.50;;;;;;4978047;28;20099;-77
2023/08/23 10:18:54;;;;;;;2.25;0.68;;;28.10;97.20;;;;;;4997157;28;20045;-76
2023/08/23 10:21:20;;;;;;;2.40;1.10;;;28.10;97.10;;;;;;4976819;28;20030;-75
2023/08/23 10:23:48;;;;;;;3.10;0.90;;;28.40;96.70;;;;;;4973093;28;20025;-77
2023/08/23 10:26:21;;;;;;;3.60;0.80;;;28.50;96.20;;;;;;4970882;28;20063;-76
2023/08/23 10:28:53;;;;;;;1.20;0.60;;;28.70;95.70;;;;;;4972455;28;20469;-77
2023/08/23 10:31:26;;;;;;;3.05;1.00;;;28.90;95.50;;;;;;4987218;28;20034;-73
2023/08/23 10:33:57;;;;;;;1.20;0.55;;;29.20;95.20;;;;;;4972494;28;20656;-79
2023/08/23 10:36:26;;;;;;;5.43;0.70;;;29.50;94.80;;;;;;4971895;28;20041;-79
2023/08/23 10:38:55;;;;;;;3.80;1.60;;;29.80;94.30;;;;;;4996590;28;20053;-74
2023/08/23 10:41:22;;;;;;;3.33;1.25;;;30.10;93.70;;;;;;4982009;28;20493;-79
2023/08/23 10:43:49;;;;;;;3.92;1.40;;;30.40;93.20;;;;;;4990863;28;20401;-79
2023/08/23 10:46:19;;;;;;;4.40;1.98;;;30.70;92.80;;;;;;4989235;28;20049;-77
2023/08/23 10:48:46;;;;;;;3.78;1.25;;;31.00;92.20;;;;;;4987786;28;20038;-79
2023/08/23 10:51:14;;;;;;;4.20;0.73;;;31.30;91.80;;;;;;4972230;28;20045;-79
2023/08/23 10:53:41;;;;;;;2.45;0.60;;;31.70;91.20;;;;;;4970206;28;20045;-76
2023/08/23 10:56:10;;;;;;;2.00;0.85;;;32.00;90.40;;;;;;4987252;28;20408;-81
2023/08/23 10:58:37;;;;;;;2.35;0.80;;;32.20;88.00;;;;;;4974277;28;20029;-82
2023/08/23 11:01:04;;;;;;;2.35;0.80;;;32.40;87.20;;;;;;4982596;28;20030;-74
2023/08/23 11:03:32;;;;;;;5.03;3.08;;;32.70;84.50;;;;;;4978772;28;20038;-78
2023/08/23 11:05:59;;;;;;;3.92;2.95;;;33.00;83.90;;;;;;4978350;28;20409;-78
2023/08/23 11:08:25;;;;;;;2.05;0.90;;;33.30;82.50;;;;;;4970911;28;20033;-77
2023/08/23 11:10:52;;;;;;;1.45;0.60;;;33.40;80.20;;;;;;4975621;28;20396;-78
2023/08/23 11:13:19;;;;;;;3.67;0.50;;;33.70;80.00;;;;;;4974824;28;20496;-76
2023/08/23 11:15:45;;;;;;;1.63;0.70;;;33.90;77.40;;;;;;4954780;28;20050;-78
2023/08/23 11:18:13;;;;;;;4.43;0.80;;;34.10;74.60;;;;;;4991198;28;21175;-74
2023/08/23 11:20:40;;;;;;;2.60;0.50;;;34.00;74.10;;;;;;4978354;28;20045;-78
2023/08/23 11:23:06;;;;;;;2.53;0.70;;;34.20;74.00;;;;;;4998316;28;20038;-78
2023/08/23 11:25:33;;;;;;;3.45;0.60;;;34.50;72.60;;;;;;4981707;28;20041;-74
2023/08/23 11:27:59;;;;;;;3.03;0.75;;;34.70;71.50;;;;;;4973355;28;22970;-75
2023/08/23 11:30:27;;;;;;;2.70;0.60;;;35.00;71.60;;;;;;4971092;28;20042;-77
2023/08/23 11:32:56;;;;;;;1.60;0.50;;;35.20;70.40;;;;;;4975384;28;20519;-79
2023/08/23 11:35:23;;;;;;;1.98;0.70;;;35.40;69.30;;;;;;4973750;28;20045;-73
2023/08/23 11:37:53;;;;;;;3.58;0.60;;;35.60;69.20;;;;;;4974772;28;20044;-77
2023/08/23 11:40:22;;;;;;;2.70;0.50;;;35.90;68.40;;;;;;4976172;28;20610;-77
2023/08/23 11:42:48;;;;;;;1.48;0.50;;;36.20;67.20;;;;;;4984306;28;20033;-79
2023/08/23 11:45:14;;;;;;;1.13;0.47;;;36.30;66.00;;;;;;4983716;28;20052;-78
2023/08/23 11:47:41;;;;;;;1.90;0.50;;;36.50;65.70;;;;;;4968754;28;20030;-78
2023/08/23 11:50:08;;;;;;;1.10;0.50;;;36.70;65.40;;;;;;4974217;28;20034;-74
2023/08/23 11:52:35;;;;;;;1.70;0.50;;;37.10;64.60;;;;;;4974271;28;20037;-73
2023/08/23 11:55:04;;;;;;;1.58;0.70;;;37.40;63.10;;;;;;4989538;28;20034;-76
2023/08/23 11:57:33;;;;;;;1.35;0.50;;;37.70;62.60;;;;;;4990376;28;20453;-75
2023/08/23 12:00:00;;;;;;;2.08;0.40;;;38.00;62.00;;;;;;4975774;28;20034;-76
2023/08/23 12:02:27;;;;;;;2.75;0.40;;;38.10;60.40;;;;;;4958908;28;20045;-74
2023/08/23 12:04:54;;;;;;;2.20;0.57;;;38.10;59.80;;;;;;4984041;28;20041;-76
2023/08/23 12:07:20;;;;;;;2.03;0.43;;;38.30;58.60;;;;;;4973354;28;20452;-77
2023/08/23 12:09:47;;;;;;;1.58;0.40;;;38.40;58.70;;;;;;4959315;28;20041;-79
2023/08/23 12:12:13;;;;;;;1.08;0.30;;;38.60;58.30;;;;;;4975205;28;20026;-79
2023/08/23 12:14:40;;;;;;;1.23;0.45;;;38.90;57.70;;;;;;4969902;28;20050;-77
2023/08/23 12:17:06;;;;;;;3.40;0.47;;;39.20;57.30;;;;;;4973454;28;20034;-74
2023/08/23 12:19:36;;;;;;;2.55;0.40;;;39.50;57.10;;;;;;4986955;28;20215;-74
2023/08/23 12:22:04;;;;;;;2.83;0.50;;;39.70;56.90;;;;;;4976784;28;20033;-79
2023/08/23 12:24:30;;;;;;;2.97;0.60;;;40.00;55.60;;;;;;4958865;28;20651;-74
2023/08/23 12:26:58;;;;;;;0.80;0.40;;;40.00;54.00;;;;;;4984743;28;20034;-75
2023/08/23 12:29:26;;;;;;;1.77;0.43;;;40.10;54.60;;;;;;4998848;28;20034;-77
2023/08/23 12:31:53;;;;;;;1.27;0.63;;;40.40;54.40;;;;;;4971951;28;20026;-79
2023/08/23 12:34:20;;;;;;;1.83;0.50;;;40.50;53.70;;;;;;4972196;28;21626;-74
2023/08/23 12:36:46;;;;;;;1.58;0.43;;;40.60;53.50;;;;;;4973595;28;21328;-75
2023/08/23 12:39:14;;;;;;;1.70;0.52;;;40.70;53.00;;;;;;4974591;28;20424;-75
2023/08/23 12:41:41;;;;;;;3.45;1.40;;;40.80;52.10;;;;;;4975187;28;20046;-78
2023/08/23 12:44:07;;;;;;;1.35;0.60;;;41.00;52.40;;;;;;4973798;28;20050;-84
2023/08/23 12:46:34;;;;;;;7.85;7.00;;;41.30;52.00;;;;;;4968203;28;20038;-76
2023/08/23 12:49:00;;;;;;;2.05;0.73;;;41.50;51.60;;;;;;4970205;28;20037;-77